Time;durP1;ratioP1;P1;durP2;ratioP2;P2;SDS_P1;SDS_P2;PMS_P1;PMS_P2;Temp;Humidity;BMP_temperature;BMP_pressure;BME280_temperature;BME280_humidity;BME280_pressure;Samples;Min_cycle;Max_cycle;Signal;HPM_P1;HPM_P2
2023/09/02 00:00:38;;;;;;;10.23;5.80;;;;;;;-141.50;100.00;63355.56;5028118;28;20053;-79
2023/09/02 00:03:25;;;;;;;7.47;4.82;;;;;;;-141.50;100.00;63355.56;5028964;28;20729;-78
2023/09/02 00:06:13;;;;;;;9.80;5.68;;;;;;;-141.50;100.00;63355.56;5027961;28;20048;-79
2023/09/02 00:09:01;;;;;;;7.45;4.97;;;;;;;-141.50;100.00;63355.56;5027321;28;20104;-79
2023/09/02 00:11:48;;;;;;;9.15;5.25;;;;;;;-141.50;100.00;63355.56;5027839;28;20978;-78
2023/09/02 00:14:36;;;;;;;10.77;6.10;;;;;;;-141.50;100.00;63355.56;5035025;28;20052;-78
2023/09/02 00:17:21;;;;;;;12.20;6.22;;;;;;;-141.50;100.00;63355.56;5031671;28;20057;-78
2023/09/02 00:20:09;;;;;;;11.17;5.87;;;;;;;-141.50;100.00;63355.56;5033684;28;20488;-78
2023/09/02 00:22:56;;;;;;;11.10;5.35;;;;;;;-141.50;100.00;63355.56;5041478;28;20314;-79
2023/09/02 00:25:43;;;;;;;7.65;4.68;;;;;;;-141.50;100.00;63355.56;5053548;28;20064;-79
2023/09/02 00:28:31;;;;;;;9.32;5.18;;;;;;;-141.50;100.00;63355.56;5050756;28;20281;-80
2023/09/02 00:31:18;;;;;;;10.80;5.55;;;;;;;-141.50;100.00;63355.56;5016564;28;20065;-79
2023/09/02 00:34:05;;;;;;;9.63;5.25;;;;;;;-141.50;100.00;63355.56;5019490;28;20076;-79
2023/09/02 00:36:52;;;;;;;11.77;6.20;;;;;;;-141.50;100.00;63355.56;5038940;28;20674;-78
2023/09/02 00:39:40;;;;;;;10.73;5.80;;;;;;;-141.50;100.00;63355.56;5047069;28;20051;-79
2023/09/02 00:42:29;;;;;;;12.18;5.85;;;;;;;-141.50;100.00;63355.56;5031047;28;21505;-80
2023/09/02 00:45:21;;;;;;;11.98;5.60;;;;;;;-141.50;100.00;63355.56;5030165;28;20397;-78
2023/09/02 00:48:10;;;;;;;11.73;5.97;;;;;;;-141.50;100.00;63355.56;5029513;28;20175;-78
2023/09/02 00:50:56;;;;;;;13.27;6.15;;;;;;;-141.50;100.00;63355.56;5031695;28;20928;-80
2023/09/02 00:53:44;;;;;;;12.82;5.75;;;;;;;-141.50;100.00;63355.56;5030435;28;20094;-80
2023/09/02 00:56:24;;;;;;;11.35;5.45;;;;;;;-141.50;100.00;63355.56;5031308;28;20727;-80
2023/09/02 00:59:13;;;;;;;14.60;6.47;;;;;;;-141.50;100.00;63355.56;5031705;28;20059;-80
2023/09/02 01:02:04;;;;;;;11.30;5.80;;;;;;;-141.50;100.00;63355.56;5037596;28;20319;-81
2023/09/02 01:04:53;;;;;;;10.75;5.40;;;;;;;-141.50;100.00;63355.56;5047508;28;20045;-79
2023/09/02 01:07:39;;;;;;;10.55;5.32;;;;;;;-141.50;100.00;63355.56;5036447;28;20139;-78
2023/09/02 01:10:28;;;;;;;9.93;5.38;;;;;;;-141.50;100.00;63355.56;5034804;28;20045;-79
2023/09/02 01:13:15;;;;;;;9.80;5.38;;;;;;;-141.50;100.00;63355.56;5042982;28;20037;-80
2023/09/02 01:16:02;;;;;;;10.32;5.68;;;;;;;-141.50;100.00;63355.56;5046169;28;20048;-79
2023/09/02 01:18:50;;;;;;;11.55;5.88;;;;;;;-141.50;100.00;63355.56;5052672;28;20056;-79
2023/09/02 01:21:55;;;;;;;12.18;5.95;;;;;;;-141.50;100.00;63355.56;5033659;28;20652;-81
2023/09/02 01:24:48;;;;;;;9.82;5.03;;;;;;;-141.50;100.00;63355.56;5054302;28;20326;-80
2023/09/02 01:27:52;;;;;;;11.75;5.60;;;;;;;-141.50;100.00;63355.56;5032762;28;20052;-80
2023/09/02 01:30:42;;;;;;;11.00;5.80;;;;;;;-141.50;100.00;63355.56;5047057;28;20053;-80
2023/09/02 01:33:31;;;;;;;11.38;5.43;;;;;;;-141.50;100.00;63355.56;5042747;28;20268;-80
2023/09/02 01:36:21;;;;;;;10.35;5.22;;;;;;;-141.50;100.00;63355.56;5043246;28;20046;-80
2023/09/02 01:39:12;;;;;;;10.80;5.45;;;;;;;-141.50;100.00;63355.56;5033471;28;20508;-79
2023/09/02 01:42:01;;;;;;;13.25;5.82;;;;;;;-141.50;100.00;63355.56;5047926;28;20214;-81
2023/09/02 01:44:50;;;;;;;11.05;5.68;;;;;;;-141.50;100.00;63355.56;5060765;28;20223;-80
2023/09/02 01:47:37;;;;;;;12.55;6.13;;;;;;;-141.50;100.00;63355.56;5030720;28;20049;-80
2023/09/02 01:50:28;;;;;;;9.93;4.97;;;;;;;-141.50;100.00;63355.56;5056010;28;20449;-79
2023/09/02 01:53:10;;;;;;;9.90;5.32;;;;;;;-141.50;100.00;63355.56;5039384;28;20056;-80
2023/09/02 01:55:56;;;;;;;9.48;5.05;;;;;;;-141.50;100.00;63355.56;5034834;28;20059;-80
2023/09/02 01:58:45;;;;;;;10.30;5.20;;;;;;;-141.50;100.00;63355.56;5038871;28;20178;-81
2023/09/02 02:01:34;;;;;;;10.38;5.10;;;;;;;-141.50;100.00;63355.56;5011881;28;20057;-80
2023/09/02 02:04:36;;;;;;;11.27;5.18;;;;;;;-141.50;100.00;63355.56;5041907;28;20136;-80
2023/09/02 02:07:28;;;;;;;11.07;5.68;;;;;;;-141.50;100.00;63355.56;5045141;28;20076;-79
2023/09/02 02:10:20;;;;;;;9.32;5.10;;;;;;;-141.50;100.00;63355.56;5024305;28;20107;-79
2023/09/02 02:13:07;;;;;;;8.32;4.78;;;;;;;-141.50;100.00;63355.56;5031565;28;20071;-79
2023/09/02 02:15:54;;;;;;;9.38;4.47;;;;;;;-141.50;100.00;63355.56;5018733;28;20051;-79
2023/09/02 02:18:42;;;;;;;11.48;4.30;;;;;;;-141.50;100.00;63355.56;5036839;28;20188;-80
2023/09/02 02:21:29;;;;;;;9.07;4.50;;;;;;;-141.50;100.00;63355.56;5028398;28;20103;-80
2023/09/02 02:24:17;;;;;;;8.02;4.57;;;;;;;-141.50;100.00;63355.56;5015628;28;20041;-80
2023/09/02 02:27:04;;;;;;;11.75;4.82;;;;;;;-141.50;100.00;63355.56;5033917;28;20443;-80
2023/09/02 02:29:52;;;;;;;13.18;5.43;;;;;;;-141.50;100.00;63355.56;5048754;28;20068;-80
2023/09/02 02:32:40;;;;;;;11.77;5.55;;;;;;;-141.50;100.00;63355.56;5051841;28;21620;-79
2023/09/02 02:35:31;;;;;;;12.23;5.50;;;;;;;-141.50;100.00;63355.56;5033584;28;20156;-78
2023/09/02 02:38:19;;;;;;;9.50;4.97;;;;;;;-141.50;100.00;63355.56;5030827;28;20495;-80
2023/09/02 02:41:06;;;;;;;10.50;5.15;;;;;;;-141.50;100.00;63355.56;5028868;28;20494;-81
2023/09/02 02:43:53;;;;;;;10.98;4.93;;;;;;;-141.50;100.00;63355.56;5029955;28;20041;-80
2023/09/02 02:46:41;;;;;;;12.48;5.88;;;;;;;-141.50;100.00;63355.56;5032235;28;21008;-79
2023/09/02 02:49:28;;;;;;;11.93;5.40;;;;;;;-141.50;100.00;63355.56;5035447;28;20253;-79
2023/09/02 02:52:16;;;;;;;10.65;5.57;;;;;;;-141.50;100.00;63355.56;5022392;28;20079;-80
2023/09/02 02:55:04;;;;;;;11.02;5.22;;;;;;;-141.50;100.00;63355.56;5037509;28;20081;-80
2023/09/02 02:57:52;;;;;;;9.63;4.90;;;;;;;-141.50;100.00;63355.56;5028207;28;20162;-79
2023/09/02 03:00:39;;;;;;;10.30;5.00;;;;;;;-141.50;100.00;63355.56;5029548;28;20740;-80
2023/09/02 03:03:26;;;;;;;9.95;5.28;;;;;;;-141.50;100.00;63355.56;5039422;28;20092;-81
2023/09/02 03:06:16;;;;;;;9.50;4.75;;;;;;;-141.50;100.00;63355.56;5019720;28;20095;-80
2023/09/02 03:09:05;;;;;;;11.00;4.88;;;;;;;-141.50;100.00;63355.56;5030733;28;20057;-79
2023/09/02 03:11:53;;;;;;;13.32;5.53;;;;;;;-141.50;100.00;63355.56;5030768;28;20064;-79
2023/09/02 03:14:46;;;;;;;10.77;4.82;;;;;;;-141.50;100.00;63355.56;5028175;28;20236;-80
2023/09/02 03:17:34;;;;;;;10.43;5.10;;;;;;;-141.50;100.00;63355.56;5012101;28;20096;-80
2023/09/02 03:20:24;;;;;;;10.88;5.55;;;;;;;-141.50;100.00;63355.56;5041449;28;20063;-80
2023/09/02 03:23:11;;;;;;;15.05;5.03;;;;;;;-141.50;100.00;63355.56;5038824;28;20427;-80
2023/09/02 03:26:08;;;;;;;13.90;5.65;;;;;;;-141.50;100.00;63355.56;5033314;28;20116;-79
2023/09/02 03:28:55;;;;;;;12.23;5.63;;;;;;;-141.50;100.00;63355.56;5027227;28;20045;-80
2023/09/02 03:31:44;;;;;;;13.07;5.38;;;;;;;-141.50;100.00;63355.56;5027813;28;20651;-79
2023/09/02 03:34:31;;;;;;;11.50;5.07;;;;;;;-141.50;100.00;63355.56;5041921;28;20084;-80
2023/09/02 03:37:17;;;;;;;9.15;4.35;;;;;;;-141.50;100.00;63355.56;5031475;28;20222;-79
2023/09/02 03:40:04;;;;;;;9.30;4.22;;;;;;;-141.50;100.00;63355.56;5029405;28;20075;-79
2023/09/02 03:42:51;;;;;;;6.05;3.30;;;;;;;-141.50;100.00;63355.56;5029301;28;20482;-79
2023/09/02 03:45:37;;;;;;;6.20;3.60;;;;;;;-141.50;100.00;63355.56;5034794;28;20507;-78
2023/09/02 03:48:25;;;;;;;7.13;3.08;;;;;;;-141.50;100.00;63355.56;5027803;28;20045;-80
2023/09/02 03:51:24;;;;;;;4.75;2.30;;;;;;;-141.50;100.00;63355.56;5019884;28;20041;-80
2023/09/02 03:54:15;;;;;;;5.57;3.25;;;;;;;-141.50;100.00;63355.56;5019149;28;20048;-79
2023/09/02 03:57:05;;;;;;;6.25;3.00;;;;;;;-141.50;100.00;63355.56;5043967;28;20124;-80
2023/09/02 03:59:53;;;;;;;7.43;3.35;;;;;;;-141.50;100.00;63355.56;5027156;28;20303;-79
2023/09/02 04:02:41;;;;;;;7.50;3.25;;;;;;;-141.50;100.00;63355.56;5041812;28;20045;-79
2023/09/02 04:05:30;;;;;;;8.27;3.72;;;;;;;-141.50;100.00;63355.56;5009539;28;20045;-79
2023/09/02 04:08:18;;;;;;;8.88;4.45;;;;;;;-141.50;100.00;63355.56;5017758;28;20046;-79
2023/09/02 04:11:10;;;;;;;9.35;4.35;;;;;;;-141.50;100.00;63355.56;5027856;28;20044;-79
2023/09/02 04:13:58;;;;;;;12.23;4.30;;;;;;;-141.50;100.00;63355.56;5027463;28;20413;-79
2023/09/02 04:16:45;;;;;;;11.63;4.68;;;;;;;-141.50;100.00;63355.56;5034733;28;20056;-79
2023/09/02 04:19:33;;;;;;;11.65;5.20;;;;;;;-141.50;100.00;63355.56;5025561;28;20041;-79
2023/09/02 04:22:21;;;;;;;8.75;3.90;;;;;;;-141.50;100.00;63355.56;5027321;28;20116;-79
2023/09/02 04:25:10;;;;;;;16.13;5.60;;;;;;;-141.50;100.00;63355.56;5044341;28;20425;-79
2023/09/02 04:27:59;;;;;;;14.30;4.95;;;;;;;-141.50;100.00;63355.56;5026960;28;20518;-81
2023/09/02 04:30:47;;;;;;;13.75;5.30;;;;;;;-141.50;100.00;63355.56;5025680;28;20095;-80
2023/09/02 04:33:35;;;;;;;16.88;5.57;;;;;;;-141.50;100.00;63355.56;5040366;28;20045;-80
2023/09/02 04:36:24;;;;;;;13.48;5.60;;;;;;;-141.50;100.00;63355.56;5038111;28;20503;-79
2023/09/02 04:39:12;;;;;;;15.65;5.97;;;;;;;-141.50;100.00;63355.56;5026251;28;20095;-80
2023/09/02 04:41:59;;;;;;;14.25;5.95;;;;;;;-141.50;100.00;63355.56;5034091;28;20412;-80
2023/09/02 04:44:49;;;;;;;16.55;5.90;;;;;;;-141.50;100.00;63355.56;5017431;28;20057;-79
2023/09/02 04:47:37;;;;;;;15.70;5.72;;;;;;;-141.50;100.00;63355.56;5041604;28;21298;-80
2023/09/02 04:50:25;;;;;;;20.25;6.30;;;;;;;-141.50;100.00;63355.56;5025639;28;20545;-79
2023/09/02 04:53:13;;;;;;;18.52;7.00;;;;;;;-141.50;100.00;63355.56;5010756;28;20048;-79
2023/09/02 04:56:03;;;;;;;15.30;6.72;;;;;;;-141.50;100.00;63355.56;5028266;28;20045;-79
2023/09/02 04:58:52;;;;;;;14.52;6.22;;;;;;;-141.50;100.00;63355.56;5027561;28;21149;-80
2023/09/02 05:01:40;;;;;;;14.80;6.78;;;;;;;-141.50;100.00;63355.56;5042256;28;20048;-79
2023/09/02 05:04:28;;;;;;;16.83;6.87;;;;;;;-141.50;100.00;63355.56;5031030;28;20443;-80
2023/09/02 05:07:13;;;;;;;15.38;6.68;;;;;;;-141.50;100.00;63355.56;5040437;28;21534;-79
2023/09/02 05:10:02;;;;;;;15.75;6.68;;;;;;;-141.50;100.00;63355.56;5029964;28;20057;-78
2023/09/02 05:12:51;;;;;;;15.38;6.55;;;;;;;-141.50;100.00;63355.56;5013426;28;20055;-79
2023/09/02 05:15:39;;;;;;;14.82;6.35;;;;;;;-141.50;100.00;63355.56;5042623;28;20048;-78
2023/09/02 05:18:26;;;;;;;14.45;6.65;;;;;;;-141.50;100.00;63355.56;5036492;28;21045;-81
2023/09/02 05:21:14;;;;;;;13.82;6.47;;;;;;;-141.50;100.00;63355.56;5037853;28;20132;-81
2023/09/02 05:24:06;;;;;;;14.65;6.82;;;;;;;-141.50;100.00;63355.56;5012970;28;20107;-80
2023/09/02 05:26:53;;;;;;;15.05;7.57;;;;;;;-141.50;100.00;63355.56;5020195;28;20038;-79
2023/09/02 05:29:40;;;;;;;15.38;6.85;;;;;;;-141.50;100.00;63355.56;5042042;28;20041;-79
2023/09/02 05:32:32;;;;;;;15.23;7.40;;;;;;;-141.50;100.00;63355.56;5053843;28;20045;-80
2023/09/02 05:35:19;;;;;;;17.13;7.80;;;;;;;-141.50;100.00;63355.56;5050961;28;20502;-80
2023/09/02 05:38:07;;;;;;;17.98;8.30;;;;;;;-141.50;100.00;63355.56;5059159;28;20059;-80
2023/09/02 05:40:54;;;;;;;16.90;7.55;;;;;;;-141.50;100.00;63355.56;5047972;28;20903;-80
2023/09/02 05:43:41;;;;;;;16.80;7.95;;;;;;;-141.50;100.00;63355.56;5054769;28;20444;-81
2023/09/02 05:46:26;;;;;;;16.58;8.48;;;;;;;-141.50;100.00;63355.56;5048742;28;20425;-81
2023/09/02 05:49:13;;;;;;;15.68;8.23;;;;;;;-141.50;100.00;63355.56;5050154;28;20045;-80
2023/09/02 05:52:00;;;;;;;14.95;7.15;;;;;;;-141.50;100.00;63355.56;5050714;28;20063;-80
2023/09/02 05:54:48;;;;;;;15.65;8.18;;;;;;;-141.50;100.00;63355.56;5058899;28;20071;-80
2023/09/02 05:57:35;;;;;;;20.92;7.93;;;;;;;-141.50;100.00;63355.56;5030402;28;20471;-79
2023/09/02 06:00:22;;;;;;;12.48;7.15;;;;;;;-141.50;100.00;63355.56;5021547;28;20060;-80
2023/09/02 06:03:09;;;;;;;14.65;7.78;;;;;;;-141.50;100.00;63355.56;5035979;28;21400;-80
2023/09/02 06:05:56;;;;;;;14.30;7.25;;;;;;;-141.50;100.00;63355.56;5036250;28;20447;-80
2023/09/02 06:08:44;;;;;;;13.65;7.07;;;;;;;-141.50;100.00;63355.56;5038284;28;20037;-79
2023/09/02 06:11:31;;;;;;;15.90;7.43;;;;;;;-141.50;100.00;63355.56;5024313;28;20037;-80
2023/09/02 06:14:17;;;;;;;14.55;7.53;;;;;;;-141.50;100.00;63355.56;5038954;28;20722;-80
2023/09/02 06:17:06;;;;;;;14.32;7.18;;;;;;;-141.50;100.00;63355.56;5036993;28;20475;-79
2023/09/02 06:19:54;;;;;;;13.30;6.88;;;;;;;-141.50;100.00;63355.56;5035898;28;20053;-80
2023/09/02 06:22:42;;;;;;;11.73;6.22;;;;;;;-141.50;100.00;63355.56;5036713;28;20041;-80
2023/09/02 06:25:28;;;;;;;12.88;6.75;;;;;;;-141.50;100.00;63355.56;5034777;28;20111;-79
2023/09/02 06:28:19;;;;;;;12.32;7.18;;;;;;;-141.50;100.00;63355.56;5031468;28;25903;-79
2023/09/02 06:31:06;;;;;;;12.40;7.07;;;;;;;-141.50;100.00;63355.56;5012223;28;20912;-79
2023/09/02 06:33:53;;;;;;;11.05;6.03;;;;;;;-141.50;100.00;63355.56;5040032;28;20416;-79
2023/09/02 06:36:43;;;;;;;9.10;5.50;;;;;;;-141.50;100.00;63355.56;5038416;28;20071;-79
2023/09/02 06:39:28;;;;;;;9.20;5.28;;;;;;;-141.50;100.00;63355.56;5029975;28;20049;-79
2023/09/02 06:42:14;;;;;;;10.50;5.90;;;;;;;-141.50;100.00;63355.56;5046425;28;20507;-79
2023/09/02 06:45:02;;;;;;;8.98;5.05;;;;;;;-141.50;100.00;63355.56;5011361;28;20045;-80
2023/09/02 06:47:46;;;;;;;11.00;6.00;;;;;;;-141.50;100.00;63355.56;5015587;28;20049;-79
2023/09/02 06:50:32;;;;;;;11.75;5.70;;;;;;;-141.50;100.00;63355.56;5017158;28;20095;-79
2023/09/02 06:53:19;;;;;;;8.90;5.35;;;;;;;-141.50;100.00;63355.56;4990213;28;20127;-78
2023/09/02 06:56:08;;;;;;;8.38;5.07;;;;;;;-141.50;100.00;63355.56;5014310;28;20630;-80
2023/09/02 06:58:55;;;;;;;7.50;4.72;;;;;;;-141.50;100.00;63355.56;5013650;28;20057;-79
2023/09/02 07:01:43;;;;;;;9.20;5.15;;;;;;;-141.50;100.00;63355.56;5026194;28;20206;-78
2023/09/02 07:04:30;;;;;;;14.50;5.90;;;;;;;-141.50;100.00;63355.56;5009944;28;20050;-79
2023/09/02 07:07:18;;;;;;;10.57;5.78;;;;;;;-141.50;100.00;63355.56;5006732;28;20251;-79
2023/09/02 07:10:05;;;;;;;9.35;5.63;;;;;;;-141.50;100.00;63355.56;4998053;28;20057;-79
2023/09/02 07:12:54;;;;;;;8.30;5.63;;;;;;;-141.50;100.00;63355.56;5008647;28;20076;-79
2023/09/02 07:15:42;;;;;;;9.70;5.90;;;;;;;-141.50;100.00;63355.56;5034493;28;20119;-79
2023/09/02 07:18:30;;;;;;;11.65;6.38;;;;;;;-141.50;100.00;63355.56;5019544;28;20131;-80
2023/09/02 07:21:24;;;;;;;14.93;7.07;;;;;;;-141.50;100.00;63355.56;5012286;28;20048;-79
2023/09/02 07:24:12;;;;;;;12.82;7.13;;;;;;;-141.50;100.00;63355.56;5023410;28;21652;-79
2023/09/02 07:26:59;;;;;;;11.45;6.90;;;;;;;-141.50;100.00;63355.56;5026182;28;20049;-79
2023/09/02 07:29:47;;;;;;;9.32;5.95;;;;;;;-141.50;100.00;63355.56;4996266;28;20849;-80
2023/09/02 07:32:35;;;;;;;9.07;6.53;;;;;;;-141.50;100.00;63355.56;5006488;28;20122;-81
2023/09/02 07:35:22;;;;;;;10.57;6.60;;;;;;;-141.50;100.00;63355.56;5012286;28;20602;-82
2023/09/02 07:38:11;;;;;;;11.02;6.80;;;;;;;-141.50;100.00;63355.56;5013503;28;20248;-82
2023/09/02 07:40:58;;;;;;;9.20;6.07;;;;;;;-141.50;100.00;63355.56;5045904;28;20049;-81
2023/09/02 07:43:45;;;;;;;11.77;7.78;;;;;;;-141.50;100.00;63355.56;5037118;28;20727;-81
2023/09/02 07:46:32;;;;;;;11.40;6.60;;;;;;;-141.50;100.00;63355.56;5025766;28;20051;-80
2023/09/02 07:49:20;;;;;;;9.55;6.20;;;;;;;-141.50;100.00;63355.56;5019243;28;20041;-79
2023/09/02 07:52:07;;;;;;;9.50;5.82;;;;;;;-141.50;100.00;63355.56;5020895;28;20580;-82
2023/09/02 07:54:54;;;;;;;8.55;5.35;;;;;;;-141.50;100.00;63355.56;5025073;28;20091;-82
2023/09/02 07:57:42;;;;;;;5.55;3.67;;;;;;;-141.50;100.00;63355.56;5031857;28;20506;-80
2023/09/02 08:00:30;;;;;;;6.20;3.92;;;;;;;-141.50;100.00;63355.56;5008490;28;20045;-78
2023/09/02 08:03:18;;;;;;;6.88;3.60;;;;;;;-141.50;100.00;63355.56;5012673;28;20045;-79
2023/09/02 08:06:06;;;;;;;2.53;1.80;;;;;;;-141.50;100.00;63355.56;5008830;28;20060;-80
2023/09/02 08:08:54;;;;;;;2.58;1.70;;;;;;;-141.50;100.00;63355.56;5020756;28;20049;-78
2023/09/02 08:11:41;;;;;;;2.40;1.42;;;;;;;-141.50;100.00;63355.56;5003156;28;20087;-79
2023/09/02 08:14:27;;;;;;;4.32;2.47;;;;;;;-141.50;100.00;63355.56;5032093;28;20053;-80
2023/09/02 08:17:15;;;;;;;3.88;1.80;;;;;;;-141.50;100.00;63355.56;5007977;28;20883;-80
2023/09/02 08:20:02;;;;;;;3.17;2.20;;;;;;;-141.50;100.00;63355.56;5020036;28;20103;-79
2023/09/02 08:22:47;;;;;;;2.85;1.70;;;;;;;-141.50;100.00;63355.56;5006374;28;20549;-79
2023/09/02 08:25:30;;;;;;;3.17;2.03;;;;;;;-141.50;100.00;63355.56;5012890;28;20052;-78
2023/09/02 08:28:17;;;;;;;2.80;1.83;;;;;;;-141.50;100.00;63355.56;5025937;28;20566;-79
2023/09/02 08:31:04;;;;;;;1.92;1.40;;;;;;;-141.50;100.00;63355.56;5042191;28;20542;-80
2023/09/02 08:33:52;;;;;;;3.78;1.88;;;;;;;-141.50;100.00;63355.56;5037876;28;22295;-81
2023/09/02 08:36:22;;;;;;;3.05;1.90;;;;;;;-141.50;100.00;63355.56;5027580;28;20214;-80
2023/09/02 08:38:52;;;;;;;2.78;1.80;;;;;;;-141.50;100.00;63355.56;5040737;28;20496;-79
2023/09/02 08:41:45;;;;;;;4.03;2.33;;;;;;;-141.50;100.00;63355.56;5013568;28;20053;-79
2023/09/02 08:44:35;;;;;;;3.88;2.58;;;;;;;-141.50;100.00;63355.56;5022222;28;21330;-79
2023/09/02 08:47:24;;;;;;;3.80;2.42;;;;;;;-141.50;100.00;63355.56;5045101;28;20430;-80
2023/09/02 08:50:13;;;;;;;4.07;2.55;;;;;;;-141.50;100.00;63355.56;5028308;28;20487;-79
2023/09/02 08:52:44;;;;;;;6.53;3.90;;;;;;;-141.50;100.00;63355.56;5030302;28;20442;-79
2023/09/02 08:55:32;;;;;;;7.00;3.65;;;;;;;-141.50;100.00;63355.56;5029607;28;20073;-79
2023/09/02 08:58:19;;;;;;;7.47;3.80;;;;;;;-141.50;100.00;63355.56;5021479;28;22171;-78
2023/09/02 09:01:06;;;;;;;5.57;3.85;;;;;;;-141.50;100.00;63355.56;5026938;28;20442;-80
2023/09/02 09:03:54;;;;;;;5.30;3.63;;;;;;;-141.50;100.00;63355.56;5026196;28;20358;-78
2023/09/02 09:06:42;;;;;;;5.38;3.50;;;;;;;-141.50;100.00;63355.56;4993231;28;20053;-78
2023/09/02 09:09:28;;;;;;;5.50;3.92;;;;;;;-141.50;100.00;63355.56;5013373;28;21571;-78
2023/09/02 09:12:02;;;;;;;5.75;3.65;;;;;;;-141.50;100.00;63355.56;5021315;28;20118;-75
2023/09/02 09:14:32;;;;;;;5.95;4.00;;;;;;;-141.50;100.00;63355.56;5033884;28;20057;-76
2023/09/02 09:17:06;;;;;;;5.43;4.05;;;;;;;-141.50;100.00;63355.56;5035719;28;20464;-76
2023/09/02 09:19:34;;;;;;;5.55;3.53;;;;;;;-141.50;100.00;63355.56;5039986;28;20683;-75
2023/09/02 09:22:05;;;;;;;5.28;3.40;;;;;;;-141.50;100.00;63355.56;5036001;28;20037;-75
2023/09/02 09:24:34;;;;;;;6.15;3.50;;;;;;;-141.50;100.00;63355.56;5014878;28;20060;-74
2023/09/02 09:27:06;;;;;;;3.95;3.20;;;;;;;-141.50;100.00;63355.56;5046893;28;20041;-76
2023/09/02 09:29:41;;;;;;;3.97;2.67;;;;;;;-141.50;100.00;63355.56;5027887;28;20051;-75
2023/09/02 09:32:31;;;;;;;4.22;2.97;;;;;;;-141.50;100.00;63355.56;5033631;28;20435;-74
2023/09/02 09:35:22;;;;;;;4.32;2.92;;;;;;;-141.50;100.00;63355.56;5032850;28;21048;-78
2023/09/02 09:37:58;;;;;;;3.55;2.75;;;;;;;-141.50;100.00;63355.56;5058656;28;20032;-77
2023/09/02 09:40:46;;;;;;;4.65;3.10;;;;;;;-141.50;100.00;63355.56;5065598;28;20053;-77
2023/09/02 09:43:17;;;;;;;2.15;1.90;;;;;;;-141.50;100.00;63355.56;5041223;28;20773;-78
2023/09/02 09:45:52;;;;;;;1.90;1.52;;;;;;;-141.50;100.00;63355.56;5026269;28;20057;-77
2023/09/02 09:48:19;;;;;;;3.33;2.15;;;;;;;-141.50;100.00;63355.56;5019427;28;20096;-77
2023/09/02 09:50:46;;;;;;;2.78;2.20;;;;;;;-141.50;100.00;63355.56;5036321;28;20061;-75
2023/09/02 09:53:15;;;;;;;3.03;2.35;;;;;;;-141.50;100.00;63355.56;5021965;28;20658;-77
2023/09/02 09:55:43;;;;;;;2.95;2.40;;;;;;;-141.50;100.00;63355.56;5037476;28;20049;-77
2023/09/02 09:58:12;;;;;;;3.63;2.42;;;;;;;-141.50;100.00;63355.56;5046660;28;20073;-77
2023/09/02 10:00:39;;;;;;;3.55;2.60;;;;;;;-141.50;100.00;63355.56;5046572;28;20578;-77
2023/09/02 10:03:06;;;;;;;2.25;1.88;;;;;;;-141.50;100.00;63355.56;5051750;28;20119;-77
2023/09/02 10:05:34;;;;;;;2.08;1.58;;;;;;;-141.50;100.00;63355.56;5046167;28;20577;-77
2023/09/02 10:08:07;;;;;;;2.78;1.77;;;;;;;-141.50;100.00;63355.56;5040561;28;20052;-77
2023/09/02 10:10:40;;;;;;;2.08;1.40;;;;;;;-141.50;100.00;63355.56;5030832;28;20053;-78
2023/09/02 10:13:13;;;;;;;2.72;1.38;;;;;;;-141.50;100.00;63355.56;5046738;28;20076;-77
2023/09/02 10:15:42;;;;;;;2.30;1.52;;;;;;;-141.50;100.00;63355.56;5052212;28;20065;-78
2023/09/02 10:18:09;;;;;;;2.00;1.60;;;;;;;-141.50;100.00;63355.56;5049414;28;20483;-77
2023/09/02 10:20:38;;;;;;;2.10;1.60;;;;;;;-141.50;100.00;63355.56;5040583;28;20045;-76
2023/09/02 10:23:16;;;;;;;2.60;1.70;;;;;;;-141.50;100.00;63355.56;5038356;28;20136;-77
2023/09/02 10:26:02;;;;;;;2.25;1.60;;;;;;;-141.50;100.00;63355.56;5040413;28;20064;-76
2023/09/02 10:28:40;;;;;;;;;;;;;;;-141.50;100.00;63355.56;5045967;28;21698;-76
2023/09/02 10:31:22;;;;;;;1.85;1.33;;;;;;;-141.50;100.00;63355.56;5044957;28;21417;-77
2023/09/02 10:34:07;;;;;;;1.88;1.40;;;;;;;-141.50;100.00;63355.56;5043717;28;20116;-77
2023/09/02 10:36:41;;;;;;;1.55;1.35;;;;;;;-141.50;100.00;63355.56;5039465;28;20454;-77
2023/09/02 10:39:21;;;;;;;1.60;1.20;;;;;;;-141.50;100.00;63355.56;5037373;28;20045;-77
2023/09/02 10:41:49;;;;;;;1.70;1.40;;;;;;;-141.50;100.00;63355.56;5043234;28;20459;-77
2023/09/02 10:44:20;;;;;;;1.52;1.10;;;;;;;-141.50;100.00;63355.56;5027172;28;20045;-78
2023/09/02 10:46:50;;;;;;;2.83;1.50;;;;;;;-141.50;100.00;63355.56;5046430;28;20049;-78
2023/09/02 10:49:23;;;;;;;1.42;1.17;;;;;;;-141.50;100.00;63355.56;5031722;28;20062;-77
2023/09/02 10:51:51;;;;;;;2.10;1.20;;;;;;;-141.50;100.00;63355.56;5048968;28;20044;-77
2023/09/02 10:54:21;;;;;;;1.67;1.05;;;;;;;-141.50;100.00;63355.56;5037700;28;20068;-77
2023/09/02 10:56:50;;;;;;;1.92;1.20;;;;;;;-141.50;100.00;63355.56;5020150;28;20146;-77
2023/09/02 10:59:30;;;;;;;1.40;1.08;;;;;;;-141.50;100.00;63355.56;5041699;28;20082;-78
2023/09/02 11:01:57;;;;;;;1.13;0.75;;;;;;;-141.50;100.00;63355.56;5049542;28;20088;-78
2023/09/02 11:04:41;;;;;;;0.90;0.70;;;;;;;-141.50;100.00;63355.56;5043937;28;20415;-78
2023/09/02 11:07:24;;;;;;;1.00;0.80;;;;;;;-141.50;100.00;63355.56;5045862;28;20080;-76
2023/09/02 11:09:56;;;;;;;0.90;0.68;;;;;;;-141.50;100.00;63355.56;5050898;28;20052;-79
2023/09/02 11:12:24;;;;;;;1.40;0.70;;;;;;;-141.50;100.00;63355.56;5034013;28;20049;-78
2023/09/02 11:15:07;;;;;;;0.50;0.40;;;;;;;-141.50;100.00;63355.56;5047689;28;20041;-77
2023/09/02 11:17:40;;;;;;;1.75;0.73;;;;;;;-141.50;100.00;63355.56;5049436;28;20892;-78
2023/09/02 11:20:13;;;;;;;1.02;0.70;;;;;;;-141.50;100.00;63355.56;5040520;28;20494;-78
2023/09/02 11:23:02;;;;;;;0.60;0.50;;;;;;;-141.50;100.00;63355.56;5044419;28;20120;-79
2023/09/02 11:25:39;;;;;;;0.60;0.57;;;;;;;-141.50;100.00;63355.56;5043523;28;20048;-78
2023/09/02 11:28:17;;;;;;;0.80;0.60;;;;;;;-141.50;100.00;63355.56;5042765;28;21387;-82
2023/09/02 11:31:02;;;;;;;1.20;0.68;;;;;;;-141.50;100.00;63355.56;5049058;28;20236;-80
2023/09/02 11:33:33;;;;;;;1.27;0.70;;;;;;;-141.50;100.00;63355.56;5051214;28;20053;-83
2023/09/02 11:36:17;;;;;;;1.40;0.90;;;;;;;-141.50;100.00;63355.56;5049072;28;20055;-81
2023/09/02 11:38:47;;;;;;;1.20;0.85;;;;;;;-141.50;100.00;63355.56;5031912;28;20048;-81
2023/09/02 11:41:22;;;;;;;0.88;0.73;;;;;;;-141.50;100.00;63355.56;5040368;28;20259;-81
2023/09/02 11:43:55;;;;;;;0.68;0.60;;;;;;;-141.50;100.00;63355.56;5032022;28;20297;-80
2023/09/02 11:46:28;;;;;;;0.85;0.60;;;;;;;-141.50;100.00;63355.56;5048985;28;20083;-80
2023/09/02 11:48:56;;;;;;;0.95;0.68;;;;;;;-141.50;100.00;63355.56;5041995;28;20099;-79
2023/09/02 11:51:24;;;;;;;0.80;0.65;;;;;;;-141.50;100.00;63355.56;5037445;28;20542;-82
2023/09/02 11:53:55;;;;;;;1.17;0.70;;;;;;;-141.50;100.00;63355.56;5053410;28;20044;-80
2023/09/02 11:56:24;;;;;;;1.10;0.65;;;;;;;-141.50;100.00;63355.56;5057309;28;20127;-81
2023/09/02 11:58:52;;;;;;;1.00;0.75;;;;;;;-141.50;100.00;63355.56;5053814;28;20049;-81
2023/09/02 12:01:22;;;;;;;0.82;0.70;;;;;;;-141.50;100.00;63355.56;5049090;28;20117;-81
2023/09/02 12:03:56;;;;;;;2.15;0.68;;;;;;;-141.50;100.00;63355.56;5054885;28;20079;-81
2023/09/02 12:06:30;;;;;;;1.98;0.93;;;;;;;-141.50;100.00;63355.56;5054353;28;20045;-79
2023/09/02 12:08:57;;;;;;;1.38;1.00;;;;;;;-141.50;100.00;63355.56;5040297;28;20044;-80
2023/09/02 12:11:26;;;;;;;1.02;0.93;;;;;;;-141.50;100.00;63355.56;5040085;28;20646;-80
2023/09/02 12:13:55;;;;;;;1.75;1.00;;;;;;;-141.50;100.00;63355.56;5066824;28;20052;-81
2023/09/02 12:16:25;;;;;;;1.02;0.75;;;;;;;-141.50;100.00;63355.56;5058736;28;20040;-78
2023/09/02 12:18:53;;;;;;;1.00;0.90;;;;;;;-141.50;100.00;63355.56;5020211;28;20136;-79
2023/09/02 12:21:20;;;;;;;0.88;0.70;;;;;;;-141.50;100.00;63355.56;5050309;28;20052;-80